Airfield :
LOGIN :

Register | Disclaimer

   EN    FR    IT 

 










Legend :    VFR   Marginal VFR   IFR   Intensive IFR   Very Intensive IFR
Visi :
Ceiling :
>= 8 km
>= 3000ft
5 to 8 km
1000 to 3000 ft
1500m to 5 km
500 to 1000 ft
800 to 1500m
200 to 500 ft
< 800m
< 200 ft
Symbols :   Thunderstorms  Fog  Heavy snow  Heavy precipitations  Wind > 20 kt
SIGMETs :     Misc.  Thunderstorms  Icing  Turbulence  Mountain Waves  Volcanic Ashes







- Airport Elevation : 82 ft
- IATA code : QIE
- Download approach charts


LFMI - Istres

CURRENT METAR :
  • 222330Z AUTO 13003KT CAVOK 23/21 Q1018 NOSIG

EXPIRED METARs :
  • 222300Z AUTO 10004KT CAVOK 23/21 Q1018 NOSIG
  • 222230Z AUTO 12006KT CAVOK 23/21 Q1018 NOSIG
  • 222200Z AUTO 11004KT 9999 FEW008 23/22 Q1018 NOSIG
  • 222130Z AUTO 13004KT 9999 FEW009 23/21 Q1018 NOSIG
  • 222100Z AUTO 14004KT 9999 BKN010 24/21 Q1018 BECMG NSC

TAF TAF LFMI
Valid from the 22 at 21:00 until the 23 at 21:00 UTC


222000Z 2221/2321 VRB05KT CAVOK
TEMPO 2300/2307 8000 BKN016
No reported NOTAMs for that airfield.



MET'MAP, your aeronautical weather chart ! - Copyright ORBIFLY December 2007 - Disclaimer

ORBIFLY MET'MAP TEAM :

Programming & Development : Alexandra Zaïnal
Concept & Development : Baudouin d'Aumeries
Co-Development & Prog : Marc-Olivier Méhu
Technical & hardware support : Manuel Goepfert

Contact : metmap@orbifly.com




SOURCES & CREDITS :

   NOAA